Andover, United Kingdom
Current Conditions -  °F | °C
As of 5:50 PM on Saturday 20 Dec 2014 (Local Time) from EGVP Reporting Station
Clear Clear  
Wind Chill: 38°   Ceiling: Unl
Heat Index: 45°   Visibility: 6mi
Dew Point: 39°   Wind: 13mph
Humidity: 81%   Direction: 270°W
Pressure: 30.42"   Gusts: NA
Location:  51.21°N, 1.48°W
Report Text: EGVP 201750Z AUTO 27011KT 9999 // NCD 07/04 Q1030
Loading
Personal Weather Stations






























Interactive Weather Map New forecast layout! Learn more

10-Day Weather Forecast

Advertisements
Track Severe Weather on mobile